createdAt,value
2022-10-13T00:00:49.861Z,96036.38
2022-10-13T00:03:51.775Z,96033.66
2022-10-13T00:06:53.644Z,96042.19
2022-10-13T00:09:56.876Z,96036.81
2022-10-13T00:12:58.759Z,96031.78
2022-10-13T00:16:03.028Z,96037.97
2022-10-13T00:19:05.248Z,96030.25
2022-10-13T00:22:07.202Z,96029.84
2022-10-13T00:25:10.701Z,96037.22
2022-10-13T00:28:13.581Z,96038.00
2022-10-13T00:31:17.528Z,96047.28
2022-10-13T00:34:19.456Z,96046.53
2022-10-13T00:37:21.393Z,96051.56
2022-10-13T00:40:24.859Z,96040.69
2022-10-13T00:43:47.396Z,96040.69
2022-10-13T00:46:49.310Z,96036.47
2022-10-13T00:49:53.039Z,96031.06
2022-10-13T00:52:57.077Z,96040.69
2022-10-13T00:56:01.189Z,96035.28
2022-10-13T00:59:05.553Z,96035.69
2022-10-13T01:02:08.025Z,96043.06
2022-10-13T01:05:10.186Z,96040.34
2022-10-13T01:08:13.001Z,96029.88
2022-10-13T01:11:29.595Z,96030.25
2022-10-13T01:14:36.511Z,96026.78
2022-10-13T01:17:49.897Z,96019.00
2022-10-13T01:21:16.797Z,96013.59
2022-10-13T01:24:47.637Z,96014.38
2022-10-13T01:27:59.734Z,96010.09
2022-10-13T01:31:07.174Z,96014.34
2022-10-13T01:34:16.302Z,96006.28
2022-10-13T01:37:27.527Z,96003.16
2022-10-13T01:40:35.321Z,96006.97
2022-10-13T01:43:42.086Z,96003.91
2022-10-13T01:46:49.540Z,96000.03
2022-10-13T01:49:53.064Z,95984.16
2022-10-13T01:52:55.896Z,95982.53
2022-10-13T01:56:00.064Z,95986.03
2022-10-13T01:59:05.623Z,95995.72
2022-10-13T02:02:18.974Z,95992.22
2022-10-13T02:05:27.327Z,95988.00
2022-10-13T02:08:36.886Z,95988.75
2022-10-13T02:11:43.142Z,95974.47
2022-10-13T02:14:46.932Z,95976.78
2022-10-13T02:17:51.232Z,95980.66
2022-10-13T02:20:54.275Z,95990.31
2022-10-13T02:23:56.225Z,95990.72
2022-10-13T02:26:58.376Z,95990.72
2022-10-13T02:30:00.365Z,95990.34
2022-10-13T02:33:03.797Z,95989.94
2022-10-13T02:36:06.130Z,95983.34
2022-10-13T02:39:09.540Z,95984.53
2022-10-13T02:42:11.738Z,95985.31
2022-10-13T02:45:13.742Z,95982.63
2022-10-13T02:48:17.095Z,95988.81
2022-10-13T02:51:19.060Z,96000.44
2022-10-13T02:54:22.003Z,95996.94
2022-10-13T02:57:24.967Z,95994.22
2022-10-13T03:00:26.907Z,95996.94
2022-10-13T03:03:30.267Z,95986.50
2022-10-13T03:06:32.131Z,95988.03
2022-10-13T03:09:33.994Z,95991.16
2022-10-13T03:12:35.905Z,95991.53
2022-10-13T03:15:38.826Z,95996.19
2022-10-13T03:18:42.097Z,95997.31
2022-10-13T03:21:44.011Z,95995.72
2022-10-13T03:24:46.077Z,95990.69
2022-10-13T03:27:47.953Z,95992.28
2022-10-13T03:30:50.961Z,95996.91
2022-10-13T03:33:54.579Z,95996.50
2022-10-13T03:36:56.601Z,96001.97
2022-10-13T03:39:58.604Z,95998.06
2022-10-13T03:43:00.537Z,95997.31
2022-10-13T03:46:03.522Z,95998.44
2022-10-13T03:49:07.113Z,95995.75
2022-10-13T03:52:09.054Z,95995.38
2022-10-13T03:55:11.046Z,95994.22
2022-10-13T03:58:13.068Z,95993.06
2022-10-13T04:01:15.035Z,95994.63
2022-10-13T04:04:18.355Z,95992.72
2022-10-13T04:07:20.265Z,95993.88
2022-10-13T04:10:22.174Z,95994.97
2022-10-13T04:13:24.028Z,95999.63
2022-10-13T04:16:28.216Z,95991.47
2022-10-13T04:19:31.467Z,95992.59
2022-10-13T04:22:33.706Z,95991.47
2022-10-13T04:25:35.979Z,95992.28
2022-10-13T04:28:37.882Z,95991.91
2022-10-13T04:31:40.303Z,95991.88
2022-10-13T04:34:43.598Z,95990.34
2022-10-13T04:37:45.498Z,95995.75
2022-10-13T04:40:47.482Z,95986.06
2022-10-13T04:43:50.284Z,95985.66
2022-10-13T04:46:52.156Z,95984.50
2022-10-13T04:49:55.432Z,95980.97
2022-10-13T04:52:59.018Z,95971.28
2022-10-13T04:56:03.064Z,95976.75
2022-10-13T04:59:05.401Z,95976.34
2022-10-13T05:02:07.470Z,95982.19
2022-10-13T05:05:11.254Z,95978.31
2022-10-13T05:08:13.117Z,95976.78
2022-10-13T05:11:16.134Z,95972.53
2022-10-13T05:14:18.131Z,95976.03
2022-10-13T05:17:20.885Z,95969.81
2022-10-13T05:20:29.685Z,95974.50
2022-10-13T05:23:33.066Z,95976.38
2022-10-13T05:26:36.042Z,95972.53
2022-10-13T05:29:40.551Z,95977.19
2022-10-13T05:32:43.333Z,95981.41
2022-10-13T05:35:48.050Z,95984.50
2022-10-13T05:38:52.352Z,95988.00
2022-10-13T05:41:56.036Z,95994.56
2022-10-13T05:44:59.840Z,95992.59
2022-10-13T05:48:01.913Z,95991.81
2022-10-13T05:51:07.738Z,95992.19
2022-10-13T05:54:14.098Z,95991.03
2022-10-13T05:57:21.446Z,95986.78
2022-10-13T06:00:25.427Z,95986.78
2022-10-13T06:03:28.519Z,95991.44
2022-10-13T06:06:33.186Z,95987.19
2022-10-13T06:09:38.357Z,95991.06
2022-10-13T06:12:40.389Z,95989.16
2022-10-13T06:15:42.300Z,95996.13
2022-10-13T06:18:44.476Z,95993.44
2022-10-13T06:21:47.809Z,95992.28
2022-10-13T06:24:49.853Z,95994.63
2022-10-13T06:27:51.759Z,95991.50
2022-10-13T06:30:53.693Z,95996.94
2022-10-13T06:33:55.716Z,95994.19
2022-10-13T06:36:59.158Z,95993.81
2022-10-13T06:40:01.077Z,95998.84
2022-10-13T06:43:03.266Z,95995.78
2022-10-13T06:46:05.563Z,95995.00
2022-10-13T06:49:07.658Z,95995.75
2022-10-13T06:52:10.946Z,95998.88
2022-10-13T06:55:13.029Z,95999.66
2022-10-13T06:58:14.887Z,95998.53
2022-10-13T07:01:16.951Z,95999.72
2022-10-13T07:04:18.874Z,96002.44
2022-10-13T07:07:22.270Z,96009.03
2022-10-13T07:10:24.290Z,95999.75
2022-10-13T07:13:26.236Z,96007.88
2022-10-13T07:16:28.212Z,95999.00
2022-10-13T07:19:30.204Z,95988.56
2022-10-13T07:22:33.475Z,95998.66
2022-10-13T07:25:35.441Z,95994.03
2022-10-13T07:28:38.055Z,95991.34
2022-10-13T07:31:40.220Z,95993.31
2022-10-13T07:34:42.133Z,95986.72
2022-10-13T07:37:45.722Z,95988.28
2022-10-13T07:40:47.649Z,95990.97
2022-10-13T07:43:49.716Z,95984.81
2022-10-13T07:46:51.723Z,95983.69
2022-10-13T07:49:53.606Z,95987.16
2022-10-13T07:52:56.935Z,95988.31
2022-10-13T07:56:00.488Z,95992.19
2022-10-13T07:59:02.742Z,95981.00
2022-10-13T08:02:04.797Z,95984.06
2022-10-13T08:05:07.225Z,95985.63
2022-10-13T08:08:10.435Z,95986.44
2022-10-13T08:11:16.434Z,95982.16
2022-10-13T08:14:19.133Z,95980.19
2022-10-13T08:17:21.281Z,95978.28
2022-10-13T08:20:26.291Z,95970.94
2022-10-13T08:23:32.058Z,95974.03
2022-10-13T08:26:33.930Z,95966.69
2022-10-13T08:29:35.961Z,95976.75
2022-10-13T08:32:38.014Z,95973.28
2022-10-13T08:35:40.072Z,95974.44
2022-10-13T08:38:43.839Z,95964.34
2022-10-13T08:41:46.140Z,95969.00
2022-10-13T08:45:28.347Z,95971.72
2022-10-13T08:48:18.632Z,95964.34
2022-10-13T08:51:21.040Z,95964.75
2022-10-13T08:54:26.027Z,95962.81
2022-10-13T08:57:27.948Z,95964.75
2022-10-13T09:00:30.372Z,95973.66
2022-10-13T09:03:32.297Z,95969.81
2022-10-13T09:06:38.697Z,95979.84
2022-10-13T09:09:42.411Z,95977.13
2022-10-13T09:12:44.417Z,95979.09
2022-10-13T09:15:48.127Z,95972.50
2022-10-13T09:18:50.119Z,95971.72
2022-10-13T09:21:54.178Z,95978.34
2022-10-13T09:25:16.717Z,95967.09
2022-10-13T09:28:22.963Z,95966.31
2022-10-13T09:31:27.939Z,95968.66
2022-10-13T09:34:29.986Z,95965.94
2022-10-13T09:37:31.870Z,95965.53
2022-10-13T09:40:37.034Z,95951.19
2022-10-13T09:43:42.929Z,95941.50
2022-10-13T09:46:56.618Z,95933.34
2022-10-13T09:50:06.561Z,95929.47
2022-10-13T09:53:26.307Z,95927.50
2022-10-13T09:56:36.210Z,95926.75
2022-10-13T09:59:43.169Z,95931.38
2022-10-13T10:02:53.549Z,95929.44
2022-10-13T10:05:57.511Z,95927.50
2022-10-13T10:09:05.965Z,95925.94
2022-10-13T10:12:16.281Z,95935.69
2022-10-13T10:15:23.675Z,95928.69
2022-10-13T10:18:33.872Z,95929.81
2022-10-13T10:21:42.677Z,95936.81
2022-10-13T10:24:52.082Z,95930.59
2022-10-13T10:28:04.465Z,95939.88
2022-10-13T10:31:18.597Z,95937.91
2022-10-13T10:34:31.040Z,95929.72
2022-10-13T10:37:52.374Z,95918.06
2022-10-13T10:41:02.222Z,95918.84
2022-10-13T10:44:10.081Z,95907.59
2022-10-13T10:47:28.200Z,95918.38
2022-10-13T10:50:31.837Z,95921.09
2022-10-13T10:53:42.006Z,95906.28
2022-10-13T10:56:49.476Z,95902.78
2022-10-13T10:59:59.546Z,95902.00
2022-10-13T11:03:08.512Z,95907.50
2022-10-13T11:06:31.702Z,95900.06
2022-10-13T11:10:17.229Z,95898.50
2022-10-13T11:13:19.265Z,95895.50
2022-10-13T11:16:29.559Z,95893.50
2022-10-13T11:19:32.967Z,95895.44
2022-10-13T11:22:34.919Z,95893.09
2022-10-13T11:25:38.075Z,95893.06
2022-10-13T11:28:47.662Z,95888.44
2022-10-13T11:31:53.838Z,95885.28
2022-10-13T11:34:59.431Z,95880.63
2022-10-13T11:38:18.204Z,95873.13
2022-10-13T11:41:28.101Z,95873.13
2022-10-13T11:44:37.785Z,95856.72
2022-10-13T11:47:58.242Z,95848.91
2022-10-13T11:51:12.511Z,95846.53
2022-10-13T11:54:27.310Z,95846.09
2022-10-13T11:57:29.392Z,95844.13
2022-10-13T12:00:31.500Z,95838.59
2022-10-13T12:03:36.499Z,95836.56
2022-10-13T12:06:38.696Z,95830.69
2022-10-13T12:09:49.561Z,95831.81
2022-10-13T12:12:52.054Z,95828.94
2022-10-13T12:15:59.449Z,95823.22
2022-10-13T12:19:20.893Z,95819.00
2022-10-13T12:22:23.147Z,95812.38
2022-10-13T12:25:28.161Z,95805.28
2022-10-13T12:28:43.601Z,95808.31
2022-10-13T12:31:47.504Z,95804.34
2022-10-13T12:34:51.117Z,95806.13
2022-10-13T12:37:54.341Z,95811.13
2022-10-13T12:40:56.825Z,95811.56
2022-10-13T12:44:01.252Z,95820.47
2022-10-13T12:47:06.192Z,95814.22
2022-10-13T12:50:37.149Z,95810.63
2022-10-13T12:53:39.304Z,95806.63
2022-10-13T12:56:42.492Z,95808.22
2022-10-13T12:59:44.523Z,95801.56
2022-10-13T13:02:52.034Z,95796.63
2022-10-13T13:06:10.339Z,95794.25
2022-10-13T13:09:21.213Z,95792.13
2022-10-13T13:12:28.705Z,95785.97
2022-10-13T13:15:34.029Z,95782.81
2022-10-13T13:18:38.980Z,95786.41
2022-10-13T13:21:42.533Z,95788.66
2022-10-13T13:24:45.147Z,95774.50
2022-10-13T13:27:47.376Z,95776.09
2022-10-13T13:30:49.242Z,95775.22
2022-10-13T13:33:51.257Z,95769.41
2022-10-13T13:36:54.689Z,95769.09
2022-10-13T13:39:56.608Z,95767.25
2022-10-13T13:42:58.557Z,95765.66
2022-10-13T13:46:00.372Z,95756.66
2022-10-13T13:49:02.312Z,95759.75
2022-10-13T13:52:05.680Z,95757.47
2022-10-13T13:55:08.727Z,95760.44
2022-10-13T13:58:11.826Z,95760.72
2022-10-13T14:01:14.539Z,95758.25
2022-10-13T14:04:16.452Z,95745.84
2022-10-13T14:07:20.006Z,95753.09
2022-10-13T14:10:22.390Z,95756.94
2022-10-13T14:13:24.395Z,95750.25
2022-10-13T14:16:26.448Z,95750.72
2022-10-13T14:19:28.629Z,95749.59
2022-10-13T14:22:32.042Z,95745.19
2022-10-13T14:25:33.996Z,95741.75
2022-10-13T14:28:35.932Z,95733.88
2022-10-13T14:31:37.957Z,95733.88
2022-10-13T14:34:39.988Z,95744.00
2022-10-13T14:37:43.365Z,95736.91
2022-10-13T14:40:45.287Z,95746.03
2022-10-13T14:43:47.193Z,95745.97
2022-10-13T14:46:49.144Z,95734.06
2022-10-13T14:49:51.061Z,95726.59
2022-10-13T14:52:54.460Z,95731.38
2022-10-13T14:55:56.416Z,95724.44
2022-10-13T14:59:01.581Z,95724.88
2022-10-13T15:02:03.546Z,95729.56
2022-10-13T15:05:06.672Z,95744.06
2022-10-13T15:08:10.228Z,95736.00
2022-10-13T15:11:12.578Z,95730.66
2022-10-13T15:14:14.621Z,95728.50
2022-10-13T15:17:16.513Z,95738.22
2022-10-13T15:20:18.837Z,95728.06
2022-10-13T15:23:22.270Z,95726.22
2022-10-13T15:26:24.298Z,95724.22
2022-10-13T15:29:26.249Z,95715.38
2022-10-13T15:32:28.681Z,95716.78
2022-10-13T15:35:30.646Z,95721.06
2022-10-13T15:38:33.912Z,95722.28
2022-10-13T15:41:35.851Z,95716.81
2022-10-13T15:45:08.025Z,95709.09
2022-10-13T15:47:59.694Z,95716.16
2022-10-13T15:51:02.381Z,95707.19
2022-10-13T15:54:07.290Z,95707.72
2022-10-13T15:57:09.211Z,95704.63
2022-10-13T16:00:12.943Z,95701.53
2022-10-13T16:03:17.332Z,95703.50
2022-10-13T16:06:19.180Z,95702.00
2022-10-13T16:09:22.467Z,95706.31
2022-10-13T16:12:24.410Z,95704.78
2022-10-13T16:15:26.411Z,95698.16
2022-10-13T16:18:31.688Z,95700.91
2022-10-13T16:21:33.688Z,95707.13
2022-10-13T16:24:37.265Z,95708.78
2022-10-13T16:27:43.846Z,95708.03
2022-10-13T16:30:46.349Z,95713.94
2022-10-13T16:33:48.469Z,95713.63
2022-10-13T16:36:50.374Z,95705.94
2022-10-13T16:39:53.733Z,95705.97
2022-10-13T16:42:55.738Z,95704.47
2022-10-13T16:46:00.001Z,95711.84
2022-10-13T16:49:02.496Z,95709.59
2022-10-13T16:52:04.587Z,95721.38
2022-10-13T16:55:09.065Z,95717.84
2022-10-13T16:58:11.424Z,95717.44
2022-10-13T17:01:13.783Z,95721.41
2022-10-13T17:04:19.802Z,95714.13
2022-10-13T17:07:24.362Z,95714.13
2022-10-13T17:10:27.852Z,95714.63
2022-10-13T17:13:31.563Z,95710.25
2022-10-13T17:16:34.138Z,95706.59
2022-10-13T17:19:36.077Z,95713.88
2022-10-13T17:22:38.604Z,95718.22
2022-10-13T17:25:42.654Z,95718.53
2022-10-13T17:28:45.649Z,95715.72
2022-10-13T17:31:48.629Z,95726.22
2022-10-13T17:34:51.152Z,95724.28
2022-10-13T17:37:53.907Z,95724.34
2022-10-13T17:41:02.754Z,95724.50
2022-10-13T17:44:10.002Z,95718.28
2022-10-13T17:47:12.195Z,95719.09
2022-10-13T17:50:15.849Z,95717.19
2022-10-13T17:53:18.456Z,95733.16
2022-10-13T17:56:25.111Z,95726.06
2022-10-13T17:59:27.282Z,95727.72
2022-10-13T18:02:29.721Z,95728.50
2022-10-13T18:05:32.004Z,95726.97
2022-10-13T18:08:34.649Z,95721.13
2022-10-13T18:11:39.691Z,95725.41
2022-10-13T18:14:43.255Z,95724.59
2022-10-13T18:17:46.343Z,95724.66
2022-10-13T18:20:48.857Z,95725.38
2022-10-13T18:23:52.137Z,95722.66
2022-10-13T18:26:56.655Z,95721.84
2022-10-13T18:29:59.202Z,95724.56
2022-10-13T18:33:01.914Z,95730.38
2022-10-13T18:36:12.868Z,95719.91
2022-10-13T18:39:17.762Z,95725.78
2022-10-13T18:42:22.382Z,95719.22
2022-10-13T18:45:25.209Z,95715.34
2022-10-13T18:48:28.462Z,95720.38
2022-10-13T18:51:35.908Z,95718.03
2022-10-13T18:54:39.418Z,95720.34
2022-10-13T18:57:44.751Z,95714.53
2022-10-13T19:00:47.391Z,95715.66
2022-10-13T19:03:51.271Z,95712.53
2022-10-13T19:06:53.954Z,95709.81
2022-10-13T19:09:57.127Z,95711.03
2022-10-13T19:13:01.185Z,95708.34
2022-10-13T19:16:04.127Z,95707.19
2022-10-13T19:19:06.997Z,95709.53
2022-10-13T19:22:11.033Z,95706.81
2022-10-13T19:25:13.957Z,95709.53
2022-10-13T19:28:21.389Z,95713.03
2022-10-13T19:31:26.405Z,95714.19
2022-10-13T19:34:29.296Z,95709.53
2022-10-13T19:37:32.773Z,95711.06
2022-10-13T19:40:41.473Z,95711.47
2022-10-13T19:43:47.039Z,95713.78
2022-10-13T19:46:50.877Z,95713.00
2022-10-13T19:49:54.238Z,95712.19
2022-10-13T19:52:57.025Z,95703.69
2022-10-13T19:55:59.859Z,95702.94
2022-10-13T19:59:04.955Z,95699.44
2022-10-13T20:02:08.285Z,95705.25
2022-10-13T20:05:10.974Z,95699.47
2022-10-13T20:08:13.542Z,95696.75
2022-10-13T20:11:22.401Z,95694.81
2022-10-13T20:14:27.874Z,95695.59
2022-10-13T20:17:30.550Z,95695.22
2022-10-13T20:20:34.041Z,95694.41
2022-10-13T20:23:36.489Z,95701.72
2022-10-13T20:26:38.886Z,95699.34
2022-10-13T20:29:42.370Z,95697.38
2022-10-13T20:32:44.332Z,95695.47
2022-10-13T20:35:46.324Z,95691.66
2022-10-13T20:38:48.788Z,95684.69
2022-10-13T20:41:50.726Z,95685.41
2022-10-13T20:44:54.059Z,95688.88
2022-10-13T20:47:56.086Z,95695.09
2022-10-13T20:51:01.596Z,95691.66
2022-10-13T20:54:03.693Z,95695.41
2022-10-13T20:57:05.625Z,95696.13
2022-10-13T21:00:10.629Z,95691.81
2022-10-13T21:03:12.531Z,95690.63
2022-10-13T21:06:15.195Z,95679.50
2022-10-13T21:09:17.171Z,95685.41
2022-10-13T21:12:19.150Z,95695.91
2022-10-13T21:15:22.494Z,95679.31
2022-10-13T21:18:24.570Z,95692.84
2022-10-13T21:21:29.194Z,95682.78
2022-10-13T21:24:31.241Z,95676.97
2022-10-13T21:27:33.227Z,95679.69
2022-10-13T21:30:36.548Z,95678.50
2022-10-13T21:33:39.733Z,95677.75
2022-10-13T21:36:41.671Z,95684.72
2022-10-13T21:39:43.622Z,95676.63
2022-10-13T21:42:45.839Z,95689.78
2022-10-13T21:45:49.301Z,95689.38
2022-10-13T21:48:53.167Z,95690.91
2022-10-13T21:51:55.283Z,95686.63
2022-10-13T21:54:57.151Z,95685.13
2022-10-13T21:58:02.972Z,95685.88
2022-10-13T22:01:08.747Z,95696.34
2022-10-13T22:04:13.478Z,95690.53
2022-10-13T22:07:15.469Z,95697.81
2022-10-13T22:10:17.468Z,95690.06
2022-10-13T22:13:19.386Z,95687.78
2022-10-13T22:16:24.282Z,95690.88
2022-10-13T22:19:26.258Z,95690.47
2022-10-13T22:22:30.926Z,95693.16
2022-10-13T22:25:33.132Z,95682.63
2022-10-13T22:28:37.467Z,95678.66
2022-10-13T22:31:41.125Z,95674.88
2022-10-13T22:34:43.090Z,95679.56
2022-10-13T22:37:44.999Z,95678.44
2022-10-13T22:40:46.936Z,95680.00
2022-10-13T22:43:50.666Z,95681.75
2022-10-13T22:46:53.954Z,95675.41
2022-10-13T22:49:55.961Z,95675.59
2022-10-13T22:52:57.851Z,95672.59
2022-10-13T22:56:00.297Z,95673.38
2022-10-13T22:59:04.989Z,95671.84
2022-10-13T23:02:08.387Z,95668.38
2022-10-13T23:05:10.319Z,95661.41
2022-10-13T23:08:12.278Z,95664.91
2022-10-13T23:11:14.454Z,95668.03
2022-10-13T23:14:16.541Z,95659.91
2022-10-13T23:17:20.245Z,95662.91
2022-10-13T23:20:22.465Z,95659.09
2022-10-13T23:23:24.482Z,95658.69
2022-10-13T23:26:26.832Z,95657.56
2022-10-13T23:29:28.710Z,95659.13
2022-10-13T23:32:32.004Z,95656.28
2022-10-13T23:35:33.937Z,95661.28
2022-10-13T23:38:35.835Z,95654.00
2022-10-13T23:41:38.089Z,95663.59
2022-10-13T23:44:40.009Z,95658.56
2022-10-13T23:47:43.409Z,95667.09
2022-10-13T23:50:45.344Z,95659.38
2022-10-13T23:53:47.382Z,95653.25
2022-10-13T23:56:49.322Z,95649.41
2022-10-13T23:59:51.284Z,95645.16
